Time;durP1;ratioP1;P1;durP2;ratioP2;P2;SDS_P1;SDS_P2;PMS_P1;PMS_P2;Temp;Humidity;BMP_temperature;BMP_pressure;BME280_temperature;BME280_humidity;BME280_pressure;Samples;Min_cycle;Max_cycle;Signal;HPM_P1;HPM_P2
2021/04/08 00:00:21;;;;;;;5.10;4.60;;;3.20;76.70;;;2.16;65.21;94802.72;5065710;28;20215;-87
2021/04/08 00:02:47;;;;;;;4.82;4.40;;;3.30;76.70;;;2.21;65.12;94808.25;5034312;28;20456;-85
2021/04/08 00:05:15;;;;;;;5.07;4.30;;;3.20;76.50;;;2.24;64.61;94809.75;5052434;28;20192;-87
2021/04/08 00:07:42;;;;;;;5.25;4.75;;;3.30;76.50;;;2.26;64.38;94817.34;5070604;28;20212;-87
2021/04/08 00:10:12;;;;;;;4.68;4.28;;;3.30;76.40;;;2.28;64.50;94815.44;5033928;28;20267;-87
2021/04/08 00:12:39;;;;;;;5.28;4.78;;;3.30;76.50;;;2.19;64.73;94793.84;5035543;28;20614;-87
2021/04/08 00:15:12;;;;;;;4.95;4.45;;;3.30;76.70;;;2.23;65.69;94811.53;5052351;28;20224;-87
2021/04/08 00:17:39;;;;;;;4.63;4.22;;;3.30;76.90;;;2.27;65.11;94817.25;5039727;28;20235;-87
2021/04/08 00:20:21;;;;;;;4.30;3.90;;;3.30;76.80;;;2.31;64.59;94820.34;5017654;28;20234;-87
2021/04/08 00:22:48;;;;;;;5.00;4.47;;;3.30;76.50;;;2.27;66.56;94831.94;5016651;28;20258;-87
2021/04/08 00:25:15;;;;;;;4.63;4.22;;;3.40;77.40;;;2.26;65.28;94836.31;5028979;28;20197;-87
2021/04/08 00:27:44;;;;;;;4.22;3.83;;;3.30;77.00;;;2.27;65.47;94840.53;4999703;28;20220;-86
2021/04/08 00:30:12;;;;;;;5.38;4.30;;;3.30;77.00;;;2.27;65.43;94832.75;5033500;28;20701;-87
2021/04/08 00:32:39;;;;;;;4.47;4.07;;;3.40;77.20;;;2.29;65.80;94836.00;5032095;28;20712;-87
2021/04/08 00:35:07;;;;;;;4.45;4.03;;;3.30;78.00;;;2.31;64.84;94831.50;5032096;28;20732;-87
2021/04/08 00:37:35;;;;;;;3.75;3.45;;;3.40;76.90;;;2.33;64.54;94839.13;5032247;28;20228;-87
2021/04/08 00:40:08;;;;;;;3.90;3.60;;;3.40;77.20;;;2.37;63.98;94843.06;5034617;28;20258;-86
2021/04/08 00:42:35;;;;;;;4.00;3.60;;;3.40;76.50;;;2.37;64.16;94843.06;5033893;28;20220;-86
2021/04/08 00:45:03;;;;;;;4.18;3.70;;;3.40;76.60;;;2.38;64.57;94853.28;5049722;28;20256;-87
2021/04/08 00:47:30;;;;;;;4.07;3.70;;;3.40;76.80;;;2.38;64.47;94850.69;5033747;28;20282;-87
2021/04/08 00:49:57;;;;;;;3.58;3.28;;;3.40;76.70;;;2.40;64.06;94846.19;5042576;28;20254;-87
2021/04/08 00:52:25;;;;;;;3.53;3.22;;;3.40;76.50;;;2.40;64.01;94850.53;5017305;28;20239;-86
2021/04/08 00:54:52;;;;;;;3.65;3.35;;;3.40;76.50;;;2.43;63.52;94849.44;5033265;28;20709;-87
2021/04/08 00:57:19;;;;;;;3.35;3.05;;;3.40;76.40;;;2.44;63.29;94846.72;5016691;28;20225;-87
2021/04/08 00:59:46;;;;;;;3.40;3.10;;;3.50;76.30;;;2.45;63.05;94845.75;5020052;28;20212;-86
2021/04/08 01:02:13;;;;;;;3.65;3.30;;;3.40;76.10;;;2.45;62.83;94852.72;5049801;28;20760;-86
2021/04/08 01:04:40;;;;;;;3.50;3.20;;;3.40;76.00;;;2.45;63.18;94845.75;5050707;28;20207;-85
2021/04/08 01:07:06;;;;;;;3.28;2.97;;;3.50;76.20;;;2.39;63.50;94841.13;5032805;28;20228;-87
2021/04/08 01:09:33;;;;;;;3.45;3.08;;;3.50;76.20;;;2.44;62.86;94854.50;5049557;28;20200;-87
2021/04/08 01:12:00;;;;;;;3.75;3.45;;;3.50;76.00;;;2.45;62.96;94847.53;5032963;28;20311;-87
2021/04/08 01:14:27;;;;;;;3.90;2.72;;;3.50;76.10;;;2.47;62.78;94856.78;5049410;28;20236;-86
2021/04/08 01:17:01;;;;;;;3.60;3.30;;;3.50;76.00;;;2.48;62.63;94861.00;5050261;28;20217;-86
2021/04/08 01:20:18;;;;;;;3.60;3.30;;;3.50;75.90;;;2.46;62.45;94855.16;5050735;28;20196;-87
2021/04/08 01:22:54;;;;;;;3.70;3.28;;;3.50;76.00;;;2.44;62.36;94859.66;5049465;28;20270;-86
2021/04/08 01:26:07;;;;;;;3.70;3.30;;;3.50;75.80;;;2.40;62.81;94858.31;5052580;28;20196;-86
2021/04/08 01:28:41;;;;;;;3.60;3.30;;;3.50;75.90;;;2.39;63.00;94861.84;5052221;28;20570;-86
2021/04/08 01:31:10;;;;;;;4.20;3.70;;;3.50;75.80;;;2.33;64.26;94868.44;5033790;28;20203;-86
2021/04/08 01:33:45;;;;;;;5.85;3.38;;;3.50;76.20;;;2.34;63.97;94871.81;5036039;28;20322;-86
2021/04/08 01:36:23;;;;;;;3.20;2.90;;;3.50;76.30;;;2.31;64.24;94866.94;5032311;28;20218;-87
2021/04/08 01:39:01;;;;;;;3.63;3.08;;;3.40;77.20;;;2.32;63.86;94859.03;5032779;28;20185;-86
2021/04/08 01:41:30;;;;;;;3.53;3.22;;;3.40;76.30;;;2.31;63.76;94865.16;4999717;28;20220;-87
2021/04/08 01:43:57;;;;;;;4.55;3.50;;;3.40;76.30;;;2.30;63.90;94870.47;5028390;28;20621;-86
2021/04/08 01:46:26;;;;;;;3.13;2.88;;;3.40;76.30;;;2.27;64.14;94874.16;5034147;28;20590;-86
2021/04/08 01:48:55;;;;;;;5.15;3.30;;;3.40;76.30;;;2.26;63.73;94869.94;5036297;28;20642;-87
2021/04/08 01:51:26;;;;;;;3.55;3.25;;;3.40;76.20;;;2.20;64.27;94870.50;5017310;28;20239;-86
2021/04/08 01:53:58;;;;;;;3.85;3.45;;;3.40;76.40;;;2.19;63.72;94868.88;5048931;28;20310;-87
2021/04/08 01:56:32;;;;;;;3.72;2.95;;;3.30;76.20;;;2.15;63.52;94873.53;5015885;28;20238;-87
2021/04/08 01:59:00;;;;;;;3.28;2.88;;;3.40;76.10;;;2.13;63.44;94880.59;5016036;28;20197;-86
2021/04/08 02:01:28;;;;;;;3.53;3.22;;;3.20;76.00;;;2.10;64.14;94875.72;5019314;28;20212;-87
2021/04/08 02:03:57;;;;;;;3.20;2.90;;;3.30;76.30;;;2.08;63.69;94875.03;5000021;28;20275;-86
2021/04/08 02:06:27;;;;;;;4.40;3.42;;;3.20;76.20;;;2.09;64.25;94881.84;4999632;28;20244;-86
2021/04/08 02:08:55;;;;;;;3.85;3.47;;;3.20;76.40;;;2.11;64.21;94879.09;5034243;28;20189;-86
2021/04/08 02:11:25;;;;;;;4.03;3.38;;;3.20;76.50;;;2.14;64.15;94887.41;4999479;28;20236;-87
2021/04/08 02:13:55;;;;;;;3.67;3.25;;;3.20;76.40;;;2.16;63.39;94876.91;5015883;28;20278;-87
2021/04/08 02:16:22;;;;;;;6.00;3.50;;;3.20;76.30;;;2.16;63.35;94867.41;5032515;28;20229;-86
2021/04/08 02:18:52;;;;;;;4.45;3.47;;;3.20;76.30;;;2.16;63.65;94880.34;5049739;28;20202;-87
2021/04/08 02:21:21;;;;;;;4.95;4.00;;;3.20;76.40;;;2.17;64.55;94881.13;5049121;28;20597;-87
2021/04/08 02:23:49;;;;;;;3.97;3.40;;;3.20;76.90;;;2.21;64.11;94880.72;5015634;28;20197;-86
2021/04/08 02:26:18;;;;;;;4.07;3.67;;;3.20;76.70;;;2.20;64.67;94870.50;5048856;28;20216;-87
2021/04/08 02:28:47;;;;;;;4.00;3.22;;;3.30;76.90;;;2.26;63.67;94884.63;5048329;28;20223;-87
2021/04/08 02:31:16;;;;;;;6.20;3.45;;;3.20;76.60;;;2.17;63.97;94865.59;5015802;28;20211;-87
2021/04/08 02:33:43;;;;;;;4.22;3.55;;;3.30;76.70;;;2.24;64.65;94877.03;5034902;28;20220;-86
2021/04/08 02:36:11;;;;;;;4.28;3.38;;;3.30;76.90;;;2.26;65.42;94889.81;5035824;28;20196;-87
2021/04/08 02:38:37;;;;;;;4.45;3.47;;;3.30;77.40;;;2.25;65.12;94891.59;5038940;28;20201;-86
2021/04/08 02:41:08;;;;;;;4.28;3.83;;;3.30;77.30;;;2.26;65.18;94882.88;5038862;28;20274;-87
2021/04/08 02:43:36;;;;;;;4.00;3.22;;;3.30;77.30;;;2.28;64.96;94880.94;5039301;28;20196;-87
2021/04/08 02:46:04;;;;;;;4.20;3.80;;;3.30;77.40;;;2.28;65.85;94890.50;5055776;28;20192;-87
2021/04/08 02:48:33;;;;;;;3.60;3.30;;;3.40;77.60;;;2.29;64.86;94895.53;5053995;28;20270;-87
2021/04/08 02:51:14;;;;;;;4.40;3.65;;;3.30;78.10;;;2.28;65.22;94904.25;5055673;28;20665;-87
2021/04/08 02:54:08;;;;;;;5.47;3.85;;;3.30;77.70;;;2.28;65.43;94913.78;5055512;28;20208;-86
2021/04/08 02:56:46;;;;;;;4.28;3.78;;;3.30;77.60;;;2.27;65.17;94904.41;5055735;28;20208;-87
2021/04/08 02:59:25;;;;;;;4.30;3.90;;;3.30;77.40;;;2.24;65.50;94906.28;5053713;28;20949;-86
2021/04/08 03:02:03;;;;;;;4.82;4.10;;;3.30;77.50;;;2.24;65.16;94913.25;5034326;28;20297;-86
2021/04/08 03:04:38;;;;;;;4.97;4.40;;;3.30;77.50;;;2.23;65.49;94911.63;5068575;28;20643;-86
2021/04/08 03:07:06;;;;;;;4.63;4.22;;;3.40;77.60;;;2.20;65.00;94915.31;5060709;28;20238;-85
2021/04/08 03:09:40;;;;;;;4.85;4.13;;;3.30;77.40;;;2.19;64.88;94923.22;5072017;28;20423;-86
2021/04/08 03:12:10;;;;;;;4.05;3.55;;;3.30;77.40;;;2.18;64.85;94924.97;5055122;28;20694;-86
2021/04/08 03:14:44;;;;;;;4.55;4.00;;;3.30;77.20;;;2.16;64.88;94916.56;5051279;28;20230;-85
2021/04/08 03:17:15;;;;;;;4.68;3.90;;;3.30;77.20;;;2.13;64.73;94906.47;5038586;28;20224;-87
2021/04/08 03:19:43;;;;;;;5.82;3.92;;;3.30;77.20;;;2.14;64.62;94913.28;5041572;28;20288;-86
2021/04/08 03:22:12;;;;;;;4.18;3.78;;;3.20;77.00;;;2.11;64.66;94913.53;5051475;28;20244;-87
2021/04/08 03:24:42;;;;;;;5.20;4.50;;;3.20;77.10;;;2.11;64.64;94910.16;5018950;28;20284;-86
2021/04/08 03:27:13;;;;;;;4.72;4.03;;;3.20;77.30;;;2.09;65.37;94931.00;5025271;28;20214;-87
2021/04/08 03:29:41;;;;;;;6.53;4.47;;;3.20;77.30;;;2.08;65.72;94927.59;5052130;28;20196;-87
2021/04/08 03:32:09;;;;;;;5.53;4.03;;;3.20;77.50;;;2.11;65.41;94925.69;5020367;28;20212;-86
2021/04/08 03:34:38;;;;;;;6.15;4.35;;;3.20;77.50;;;2.06;65.93;94918.34;5036299;28;20390;-86
2021/04/08 03:37:06;;;;;;;5.45;4.38;;;3.20;77.70;;;2.06;65.53;94929.50;5054271;28;20219;-87
2021/04/08 03:39:33;;;;;;;6.55;5.00;;;3.20;77.70;;;2.15;66.43;94942.53;5035431;28;20189;-87
2021/04/08 03:42:01;;;;;;;5.55;5.00;;;3.20;78.10;;;2.16;66.06;94949.34;5051466;28;20804;-87
2021/04/08 03:44:29;;;;;;;7.15;5.03;;;3.20;78.20;;;2.15;66.73;94958.06;5051890;28;20617;-86
2021/04/08 03:46:59;;;;;;;6.90;5.22;;;3.30;78.50;;;2.14;66.89;94956.47;5035283;28;20299;-87
2021/04/08 03:49:27;;;;;;;7.65;4.50;;;3.20;78.70;;;2.18;66.80;94966.38;5002265;28;20200;-87
2021/04/08 03:51:55;;;;;;;6.93;5.20;;;3.20;78.60;;;2.18;66.64;94957.81;5034744;28;20243;-87
2021/04/08 03:54:23;;;;;;;7.70;5.20;;;3.20;78.60;;;2.18;66.63;94968.97;5026125;28;20231;-87
2021/04/08 03:56:52;;;;;;;7.93;4.65;;;3.20;78.50;;;2.20;66.06;94961.88;5002143;28;20279;-88
2021/04/08 03:59:19;;;;;;;10.38;4.53;;;3.30;79.10;;;2.22;65.73;94972.09;5034697;28;20204;-87
2021/04/08 04:01:48;;;;;;;5.78;4.28;;;3.30;78.20;;;2.22;65.82;94979.84;5017724;28;20252;-87
2021/04/08 04:04:16;;;;;;;5.53;4.45;;;3.30;78.10;;;2.13;66.40;94968.56;5018471;28;20528;-87
2021/04/08 04:06:47;;;;;;;6.15;5.03;;;3.30;78.30;;;2.19;66.10;94982.72;5028296;28;20693;-87
2021/04/08 04:09:14;;;;;;;5.43;4.88;;;3.30;78.10;;;2.18;65.95;94979.31;5037658;28;20216;-87
2021/04/08 04:11:47;;;;;;;7.13;4.82;;;3.30;78.10;;;2.17;66.31;94982.03;5033649;28;20224;-87
2021/04/08 04:14:22;;;;;;;8.50;5.38;;;3.30;78.30;;;2.17;66.60;94982.03;5033913;28;20243;-87
2021/04/08 04:16:55;;;;;;;8.32;5.30;;;3.30;78.30;;;2.17;66.33;94990.66;5017821;28;20216;-87
2021/04/08 04:19:25;;;;;;;7.15;5.30;;;3.30;78.30;;;2.16;66.73;94998.53;5034455;28;20730;-87
2021/04/08 04:21:53;;;;;;;9.73;5.40;;;3.30;78.50;;;2.14;66.43;94998.66;5023902;28;20244;-87
2021/04/08 04:24:21;;;;;;;9.65;5.72;;;3.30;78.60;;;2.12;66.39;94979.06;5034006;28;20283;-88
2021/04/08 04:26:48;;;;;;;7.57;5.07;;;3.20;78.50;;;2.10;66.24;94989.56;5001287;28;20212;-88
2021/04/08 04:29:15;;;;;;;6.55;5.15;;;3.20;78.30;;;2.13;66.00;94988.47;5001165;28;20211;-86
2021/04/08 04:31:41;;;;;;;6.50;5.07;;;3.20;78.30;;;2.11;65.94;94980.81;5016286;28;20290;-87
2021/04/08 04:34:08;;;;;;;8.50;5.88;;;3.20;78.10;;;2.15;65.76;94991.72;5050214;28;20243;-87
2021/04/08 04:36:35;;;;;;;6.63;5.10;;;3.20;78.10;;;2.15;65.42;95002.06;5017119;28;20337;-87
2021/04/08 04:39:03;;;;;;;6.10;4.53;;;3.20;78.00;;;2.19;65.19;95013.78;5017060;28;20343;-86
2021/04/08 04:41:30;;;;;;;7.68;4.85;;;3.20;77.90;;;2.21;64.94;95024.78;5027146;28;20224;-86
2021/04/08 04:43:57;;;;;;;7.20;5.40;;;3.10;77.80;;;2.19;65.69;95022.34;5033795;28;20243;-87
2021/04/08 04:46:24;;;;;;;10.18;5.70;;;3.20;77.90;;;2.20;65.37;95018.00;5050207;28;20205;-86
2021/04/08 04:48:52;;;;;;;8.98;5.22;;;3.20;78.80;;;2.19;65.40;95018.97;5041710;28;20207;-86
2021/04/08 04:51:18;;;;;;;7.00;4.55;;;3.20;78.00;;;2.19;65.36;95026.72;5053428;28;20207;-87
2021/04/08 04:53:46;;;;;;;7.80;5.63;;;3.20;78.00;;;2.17;65.49;95026.03;5053159;28;20294;-87
2021/04/08 04:56:13;;;;;;;6.30;5.32;;;3.20;78.20;;;2.19;65.63;95034.50;5053089;28;20196;-87
2021/04/08 04:58:40;;;;;;;6.15;4.93;;;3.20;78.20;;;2.20;65.40;95041.31;5050225;28;20192;-87
2021/04/08 05:01:08;;;;;;;6.82;5.15;;;3.20;78.10;;;2.20;65.59;95033.53;5052112;28;20215;-88
2021/04/08 05:03:38;;;;;;;6.50;5.00;;;3.20;78.00;;;2.24;65.13;95038.28;5037071;28;20204;-87
2021/04/08 05:06:06;;;;;;;7.30;5.25;;;3.20;77.90;;;2.23;65.07;95035.84;5049624;28;20747;-88
2021/04/08 05:08:32;;;;;;;8.07;5.50;;;3.20;77.90;;;2.26;65.51;95039.91;5033071;28;20197;-87
2021/04/08 05:10:59;;;;;;;8.13;5.72;;;3.30;78.20;;;2.24;65.59;95043.44;5033421;28;20189;-87
2021/04/08 05:13:26;;;;;;;8.38;5.20;;;3.30;78.10;;;2.28;65.10;95044.00;5049798;28;20235;-87
2021/04/08 05:15:53;;;;;;;7.43;5.20;;;3.30;78.00;;;2.27;64.69;95050.16;5039978;28;20746;-88
2021/04/08 05:18:19;;;;;;;7.68;5.05;;;3.30;77.90;;;2.31;64.96;95058.47;5016683;28;20766;-88
2021/04/08 05:20:46;;;;;;;10.25;5.50;;;3.20;77.80;;;2.31;65.11;95063.63;5033155;28;20215;-88
2021/04/08 05:23:15;;;;;;;5.75;4.97;;;3.30;77.90;;;2.30;65.03;95059.41;5019296;28;20223;-90
2021/04/08 05:25:43;;;;;;;7.25;5.07;;;3.30;77.90;;;2.35;64.98;95068.38;5030776;28;20208;-88
2021/04/08 05:28:10;;;;;;;8.30;4.65;;;3.30;77.90;;;2.38;65.24;95059.53;5031901;28;20374;-89
2021/04/08 05:30:37;;;;;;;7.75;5.80;;;3.30;78.00;;;2.41;65.80;95059.25;5018107;28;20201;-89
2021/04/08 05:33:04;;;;;;;7.38;5.40;;;3.30;78.30;;;2.44;65.43;95061.59;5065171;28;20216;-87
2021/04/08 05:35:31;;;;;;;6.85;4.88;;;3.30;78.20;;;2.48;65.09;95070.69;5030346;28;20235;-89
2021/04/08 05:37:58;;;;;;;7.43;5.28;;;3.40;78.10;;;2.47;65.27;95076.81;5049058;28;20223;-89
2021/04/08 05:40:25;;;;;;;8.50;4.97;;;3.50;78.30;;;2.50;64.95;95081.75;5049451;28;20205;-90
2021/04/08 05:42:52;;;;;;;5.25;4.53;;;3.40;77.90;;;2.48;65.54;95088.81;5033869;28;20223;-86
2021/04/08 05:45:20;;;;;;;6.07;4.82;;;3.50;78.20;;;2.47;65.59;95097.53;5031461;28;20218;-85
2021/04/08 05:47:48;;;;;;;6.75;4.85;;;3.50;78.20;;;2.49;65.38;95100.81;5046802;28;20227;-86
2021/04/08 05:50:16;;;;;;;9.25;5.38;;;3.50;78.20;;;2.49;64.98;95112.94;5051079;28;20586;-86
2021/04/08 05:52:44;;;;;;;6.15;5.20;;;3.50;78.10;;;2.47;65.62;95113.06;5035722;28;20223;-86
2021/04/08 05:55:12;;;;;;;6.50;5.10;;;3.50;78.20;;;2.46;65.64;95110.63;5051053;28;20269;-86
2021/04/08 05:57:39;;;;;;;7.63;5.20;;;3.50;79.10;;;2.48;65.57;95114.72;5025696;28;20231;-86
2021/04/08 06:00:09;;;;;;;8.05;5.63;;;3.60;78.30;;;2.50;65.61;95122.34;5048720;28;20257;-87
2021/04/08 06:02:36;;;;;;;7.55;5.55;;;3.50;78.30;;;2.50;66.09;95118.00;5029573;28;20222;-87
2021/04/08 06:05:06;;;;;;;7.25;5.30;;;3.50;78.50;;;2.54;66.20;95121.94;5030594;28;20192;-87
2021/04/08 06:07:33;;;;;;;8.95;6.32;;;3.50;78.70;;;2.59;66.42;95118.94;5035504;28;20756;-86
2021/04/08 06:10:00;;;;;;;8.13;6.13;;;3.50;78.90;;;2.63;66.64;95124.66;5019483;28;20248;-86
2021/04/08 06:12:27;;;;;;;8.30;6.20;;;3.60;79.10;;;2.67;66.93;95129.44;5053114;28;20732;-86
2021/04/08 06:14:54;;;;;;;8.18;6.03;;;3.60;79.30;;;2.71;66.56;95114.41;5065180;28;20219;-86
2021/04/08 06:17:21;;;;;;;8.77;5.60;;;3.60;79.20;;;2.81;66.61;95124.78;5036269;28;20220;-87
2021/04/08 06:19:48;;;;;;;7.35;5.65;;;3.70;79.20;;;2.90;66.22;95136.88;5052587;28;20550;-88
2021/04/08 06:22:15;;;;;;;8.23;6.07;;;3.70;79.10;;;2.95;65.78;95144.25;5020392;28;20821;-88
2021/04/08 06:24:42;;;;;;;9.98;6.32;;;3.80;79.10;;;2.94;65.94;95138.25;5049226;28;20208;-87
2021/04/08 06:27:09;;;;;;;7.43;5.43;;;3.80;79.00;;;2.96;65.60;95148.47;5058829;28;20231;-88
2021/04/08 06:29:36;;;;;;;10.90;6.55;;;3.80;78.80;;;2.95;65.67;95142.47;5072543;28;20192;-87
2021/04/08 06:32:04;;;;;;;8.05;5.63;;;3.90;78.90;;;3.01;66.17;95161.81;5049383;28;20685;-87
2021/04/08 06:34:32;;;;;;;11.30;6.55;;;3.90;79.10;;;3.03;66.36;95159.94;5052243;28;20228;-86
2021/04/08 06:36:59;;;;;;;8.85;6.50;;;4.00;79.20;;;3.05;65.77;95178.72;5035757;28;20232;-87
2021/04/08 06:39:26;;;;;;;8.63;6.50;;;4.00;78.90;;;3.01;66.18;95174.78;5068316;28;20199;-85
2021/04/08 06:41:55;;;;;;;8.50;5.88;;;3.90;78.80;;;2.90;65.84;95175.75;5044076;28;20229;-86
2021/04/08 06:44:24;;;;;;;8.60;7.03;;;3.90;78.70;;;2.88;66.00;95175.91;5034546;28;20204;-86
2021/04/08 06:46:57;;;;;;;8.20;6.05;;;3.90;78.70;;;2.84;65.77;95194.44;5034927;28;20639;-85
2021/04/08 06:49:54;;;;;;;8.35;6.00;;;3.90;78.50;;;2.77;65.86;95193.34;5041591;28;20293;-86
2021/04/08 06:52:23;;;;;;;9.23;6.43;;;3.80;78.60;;;2.72;66.61;95222.22;5053524;28;20717;-85
2021/04/08 06:54:50;;;;;;;10.50;6.32;;;3.80;78.80;;;2.70;66.85;95195.69;5053707;28;20219;-88
2021/04/08 06:57:18;;;;;;;8.65;5.82;;;3.70;78.90;;;2.73;66.86;95197.97;5036812;28;20231;-86
2021/04/08 06:59:47;;;;;;;8.30;6.75;;;3.80;79.30;;;2.81;66.88;95194.72;5046562;28;20805;-87
2021/04/08 07:02:20;;;;;;;9.20;6.38;;;3.70;79.40;;;2.86;67.11;95214.06;5022514;28;20217;-87
2021/04/08 07:04:48;;;;;;;8.02;5.28;;;3.80;79.70;;;2.96;66.66;95200.31;5016686;28;20219;-88
2021/04/08 07:07:15;;;;;;;7.68;5.25;;;3.80;79.70;;;3.07;66.46;95210.50;5033542;28;20235;-86
2021/04/08 07:09:43;;;;;;;6.32;5.43;;;3.80;79.60;;;3.18;66.59;95209.53;5009119;28;20269;-86
2021/04/08 07:12:12;;;;;;;8.40;5.50;;;3.90;79.60;;;3.26;66.47;95209.69;5025424;28;20323;-86
2021/04/08 07:14:39;;;;;;;6.95;6.00;;;4.00;79.80;;;3.22;66.63;95204.91;5025430;28;20232;-86
2021/04/08 07:17:12;;;;;;;8.77;6.20;;;4.10;79.70;;;3.32;66.15;95214.31;5028842;28;20216;-86
2021/04/08 07:19:40;;;;;;;8.38;6.07;;;4.10;79.40;;;3.36;66.42;95220.03;5027985;28;20205;-85
2021/04/08 07:22:07;;;;;;;10.10;6.32;;;4.10;79.60;;;3.33;65.71;95212.50;5015732;28;20216;-85
2021/04/08 07:24:43;;;;;;;9.85;7.40;;;4.30;79.40;;;3.36;65.91;95225.22;5014827;28;20210;-84
2021/04/08 07:27:16;;;;;;;9.07;6.45;;;4.30;79.20;;;3.36;66.41;95223.44;5009488;28;20266;-86
2021/04/08 07:29:46;;;;;;;7.32;5.82;;;4.20;79.40;;;3.39;66.24;95237.06;5026616;28;20292;-86
2021/04/08 07:32:27;;;;;;;6.55;5.35;;;4.30;79.30;;;3.44;65.83;95234.88;5027398;28;20223;-86
2021/04/08 07:35:12;;;;;;;8.73;6.70;;;4.30;79.20;;;3.46;66.22;95246.75;5041001;28;20752;-87
2021/04/08 07:37:39;;;;;;;10.18;6.70;;;4.30;79.20;;;3.47;65.60;95250.97;5044137;28;20211;-87
2021/04/08 07:40:20;;;;;;;9.32;6.80;;;4.40;79.30;;;3.56;65.52;95245.91;5026697;28;20220;-86
2021/04/08 07:42:47;;;;;;;7.63;6.30;;;4.40;78.90;;;3.61;65.91;95248.91;5047393;28;20211;-87
2021/04/08 07:45:28;;;;;;;13.27;7.53;;;4.40;79.20;;;3.73;65.64;95249.56;5051999;28;20719;-85
2021/04/08 07:48:01;;;;;;;10.18;7.00;;;4.50;79.40;;;3.82;65.90;95246.94;5046719;28;20270;-85
2021/04/08 07:50:29;;;;;;;10.20;7.22;;;4.60;79.70;;;3.96;65.85;95247.44;5028436;28;20275;-85
2021/04/08 07:52:57;;;;;;;8.35;6.47;;;4.60;79.70;;;4.09;65.66;95258.31;5068062;28;20649;-86
2021/04/08 07:55:30;;;;;;;7.80;6.35;;;4.70;79.80;;;4.14;65.30;95258.69;5020404;28;20297;-87
2021/04/08 07:58:17;;;;;;;7.85;6.10;;;4.80;79.20;;;4.09;64.65;95271.28;5052416;28;20718;-85
2021/04/08 08:00:50;;;;;;;8.77;6.25;;;4.80;79.70;;;4.02;64.89;95272.81;5054123;28;20238;-86
2021/04/08 08:03:23;;;;;;;8.75;5.40;;;4.90;78.80;;;4.03;64.94;95276.22;5053581;28;20219;-85
2021/04/08 08:05:51;;;;;;;6.60;5.90;;;4.80;79.00;;;4.04;64.93;95291.69;5045495;28;20196;-85
2021/04/08 08:08:25;;;;;;;9.95;6.15;;;4.80;78.80;;;3.99;64.03;95288.66;5041404;28;20227;-85
2021/04/08 08:10:59;;;;;;;9.43;6.10;;;4.80;78.20;;;3.91;64.29;95288.56;5017521;28;20208;-86
2021/04/08 08:13:39;;;;;;;7.20;5.65;;;4.80;78.30;;;3.91;64.17;95306.75;5021190;28;20196;-85
2021/04/08 08:16:07;;;;;;;9.65;5.63;;;4.80;78.40;;;3.82;63.07;95298.84;5026098;28;20208;-85
2021/04/08 08:18:43;;;;;;;9.68;5.55;;;4.80;77.80;;;3.80;63.33;95307.72;5035701;28;20203;-85
2021/04/08 08:21:30;;;;;;;8.85;5.63;;;4.70;77.80;;;3.78;63.24;95320.81;5054708;28;20187;-86
2021/04/08 08:23:58;;;;;;;6.85;4.72;;;4.70;77.90;;;3.74;62.67;95310.88;5071756;28;20195;-85
2021/04/08 08:26:44;;;;;;;7.55;4.32;;;4.70;77.60;;;3.69;62.68;95319.88;5045418;28;20224;-84
2021/04/08 08:29:11;;;;;;;6.47;4.90;;;4.60;77.30;;;3.67;62.92;95313.19;5029980;28;20287;-86
2021/04/08 08:31:43;;;;;;;5.68;4.80;;;4.60;77.40;;;3.71;62.43;95318.91;5033378;28;20227;-84
2021/04/08 08:34:23;;;;;;;10.77;5.63;;;4.60;77.20;;;3.72;61.81;95318.78;5024877;28;20223;-86
2021/04/08 08:36:50;;;;;;;4.93;4.43;;;4.60;77.20;;;3.84;62.07;95319.44;5037334;28;20298;-85
2021/04/08 08:39:30;;;;;;;6.90;5.32;;;4.60;77.40;;;3.95;61.10;95321.88;5039090;28;20192;-84
2021/04/08 08:41:59;;;;;;;8.27;5.70;;;4.60;77.20;;;3.98;60.80;95323.38;5015867;28;20216;-84
2021/04/08 08:44:27;;;;;;;8.10;5.03;;;4.60;77.10;;;4.03;60.17;95335.91;5006405;28;20189;-84
2021/04/08 08:47:18;;;;;;;7.15;5.45;;;4.70;76.90;;;4.06;60.48;95346.84;5033750;28;20302;-85
2021/04/08 08:50:08;;;;;;;9.60;5.28;;;4.70;76.80;;;4.08;60.03;95338.94;5041551;28;20213;-84
2021/04/08 08:52:42;;;;;;;8.73;5.22;;;4.70;76.30;;;4.09;60.54;95337.94;5016139;28;20217;-84
2021/04/08 08:55:18;;;;;;;7.80;5.20;;;4.80;76.50;;;4.17;61.18;95343.25;5047684;28;20269;-84
2021/04/08 08:57:57;;;;;;;6.13;4.57;;;4.80;76.70;;;4.28;60.97;95337.88;5013177;28;20230;-83
2021/04/08 09:00:27;;;;;;;8.95;5.45;;;4.90;76.80;;;4.37;59.57;95340.59;5035028;28;20251;-84
2021/04/08 09:02:56;;;;;;;9.93;4.85;;;4.90;76.60;;;4.40;59.74;95327.34;5026024;28;20570;-83
2021/04/08 09:05:30;;;;;;;6.20;4.82;;;5.00;76.30;;;4.52;59.87;95333.16;5023386;28;20208;-83
2021/04/08 09:08:12;;;;;;;6.50;4.65;;;5.00;76.50;;;4.65;59.98;95333.63;5021129;28;20312;-83
2021/04/08 09:10:51;;;;;;;7.55;4.80;;;5.10;76.30;;;4.79;57.69;95340.13;5054319;28;20197;-84
2021/04/08 09:13:19;;;;;;;6.72;4.65;;;5.20;76.10;;;4.89;57.71;95340.09;5040597;28;20212;-84
2021/04/08 09:15:46;;;;;;;5.10;3.78;;;5.30;75.50;;;4.92;56.59;95339.78;5048312;28;20311;-84
2021/04/08 09:18:19;;;;;;;5.10;3.67;;;5.30;75.10;;;4.92;55.76;95356.22;5024046;28;20211;-84
2021/04/08 09:20:48;;;;;;;5.30;3.53;;;5.40;74.50;;;4.90;55.83;95347.72;5033540;28;20223;-85
2021/04/08 09:23:19;;;;;;;5.43;3.30;;;5.40;74.00;;;4.92;56.08;95350.16;5024303;28;20227;-85
2021/04/08 09:25:56;;;;;;;5.35;3.83;;;5.40;74.30;;;5.01;57.19;95354.50;5043834;28;20295;-85
2021/04/08 09:28:30;;;;;;;5.35;3.45;;;5.50;74.40;;;5.04;54.84;95362.03;5025482;28;20219;-85
2021/04/08 09:33:43;;;;;;;6.28;3.25;;;5.60;73.20;;;5.19;55.66;95358.91;5035159;28;20199;-85
2021/04/08 09:36:42;;;;;;;6.70;3.30;;;5.60;73.60;;;5.28;52.59;95361.47;5027341;28;20718;-83
2021/04/08 09:39:09;;;;;;;6.10;3.67;;;5.70;72.80;;;5.35;52.38;95359.06;5023919;28;20193;-84
2021/04/08 09:41:51;;;;;;;5.95;3.42;;;5.80;72.40;;;5.37;53.22;95358.91;5050165;28;20763;-84
2021/04/08 09:44:20;;;;;;;4.63;3.03;;;5.80;72.50;;;5.38;53.50;95355.34;5050313;28;20195;-84
2021/04/08 09:46:51;;;;;;;5.25;3.22;;;5.80;72.30;;;5.37;52.84;95359.75;5034005;28;20247;-84
2021/04/08 09:49:44;;;;;;;4.72;3.40;;;5.90;71.70;;;5.41;54.37;95365.47;5034391;28;20278;-85
2021/04/08 09:52:13;;;;;;;6.22;4.30;;;5.90;73.00;;;5.51;54.63;95365.41;5030750;28;20216;-85
2021/04/08 09:54:47;;;;;;;4.72;3.38;;;6.00;73.00;;;5.60;53.83;95373.13;5030680;28;20223;-86
2021/04/08 09:57:40;;;;;;;3.65;3.20;;;6.00;72.60;;;5.65;52.55;95372.69;5030562;28;20224;-84
2021/04/08 10:00:14;;;;;;;6.55;3.40;;;6.10;71.90;;;5.69;53.06;95366.22;5039101;28;20558;-84
2021/04/08 10:03:06;;;;;;;4.28;2.95;;;6.10;71.80;;;5.80;54.00;95366.94;5058630;28;20219;-84
2021/04/08 10:05:39;;;;;;;6.95;3.40;;;6.20;72.80;;;5.86;51.42;95374.97;5030110;28;20196;-84
2021/04/08 10:08:10;;;;;;;4.88;3.15;;;6.30;70.90;;;5.87;49.77;95374.00;5016705;28;20225;-83
2021/04/08 10:10:37;;;;;;;5.68;3.45;;;6.40;70.30;;;5.98;51.37;95374.72;5032175;28;20223;-83
2021/04/08 10:13:29;;;;;;;6.25;3.10;;;6.40;70.90;;;6.15;51.59;95368.69;5051981;28;20306;-84
2021/04/08 10:16:11;;;;;;;3.85;2.85;;;6.50;71.10;;;6.35;52.38;95361.47;5066397;28;20216;-83
2021/04/08 10:18:39;;;;;;;5.55;3.05;;;6.60;71.40;;;6.55;51.24;95361.25;5066868;28;20195;-83
2021/04/08 10:21:19;;;;;;;5.72;3.28;;;6.80;71.10;;;6.75;51.85;95367.06;5047858;28;20195;-84
2021/04/08 10:23:49;;;;;;;3.78;2.72;;;6.90;71.40;;;6.95;49.84;95369.41;5029750;28;20204;-84
2021/04/08 10:26:20;;;;;;;4.78;2.90;;;7.10;70.60;;;7.07;49.37;95367.31;4997849;28;20197;-84
2021/04/08 10:28:59;;;;;;;4.95;3.03;;;7.20;70.30;;;7.08;48.64;95369.78;5027314;28;20203;-84
2021/04/08 10:31:32;;;;;;;4.22;2.88;;;7.30;69.10;;;7.08;49.35;95359.34;5033254;28;20252;-84
2021/04/08 10:34:04;;;;;;;4.55;3.30;;;7.40;69.50;;;7.04;47.84;95363.22;5036371;28;20292;-84
2021/04/08 10:36:37;;;;;;;5.05;3.15;;;7.50;68.40;;;7.00;48.30;95380.19;5048224;28;20220;-84
2021/04/08 10:39:25;;;;;;;4.53;2.88;;;7.50;68.80;;;6.97;47.85;95368.28;5024929;28;20253;-83
2021/04/08 10:42:05;;;;;;;3.20;2.75;;;7.50;68.20;;;7.01;47.44;95374.00;5027502;28;20264;-86
2021/04/08 10:44:41;;;;;;;5.00;2.80;;;7.50;67.80;;;7.10;47.74;95373.03;5029928;28;20184;-84
2021/04/08 10:47:10;;;;;;;4.45;2.70;;;7.50;68.20;;;7.13;46.20;95361.47;5029149;28;20266;-85
2021/04/08 10:49:52;;;;;;;4.40;2.70;;;7.70;67.60;;;7.08;44.66;95366.34;5031171;28;20270;-85
2021/04/08 10:52:23;;;;;;;5.05;2.83;;;7.60;65.70;;;6.96;43.92;95379.69;5041705;28;20239;-84